KCNM/CNM METAR and TAF weather

Enter ICAO airport designator
Station Type Date Time Source
KCNM METAR 2019/06/26 21:53 UTC NOAA

KCNM 262153Z AUTO 11013G20KT 10SM CLR 36/09 A3001 RMK AO2 LTG DSNT SW-NW SLP100 T03610094


Station Type Date Time Source
KCNM Decoded METAR 2019/06/26 21:53 UTC NOAA

CARLSBAD CAVERN CITY, NM, United States (KCNM) 32-20N 104-16W 985M
Jun 26, 2019 - 05:53 PM EDT / 2019.06.26 2153 UTC
Wind: from the ESE (110 degrees) at 15 MPH (13 KT) gusting to 23 MPH (20 KT):0
Visibility: 10 mile(s):0
Sky conditions: clear
Weather: Lightning observed
Temperature: 97.0 F (36.1 C)
Dew Point: 48.9 F (9.4 C)
Relative Humidity: 19%
Pressure (altimeter): 30.01 in. Hg (1016 hPa)
ob: KCNM 262153Z AUTO 11013G20KT 10SM CLR 36/09 A3001 RMK AO2 LTG DSNT SW-NW SLP100 T03610094
cycle: 22

Station Type Date Time Source
KCNM TAF 2019/06/26 18:30 UTC NOAA

TAF KCNM 261727Z 2618/2718 14010G20KT P6SM SKC
FM270900 14008KT P6SM SCT250
FM271700 15013G20KT P6SM SKC

Example: see airport list